createdAt,value
2017-05-31T00:02:12.564Z,7.30
2017-05-31T00:04:40.859Z,6.88
2017-05-31T00:07:09.179Z,6.08
2017-05-31T00:09:37.491Z,6.80
2017-05-31T00:12:05.790Z,6.24
2017-05-31T00:14:34.113Z,6.06
2017-05-31T00:17:02.404Z,6.60
2017-05-31T00:19:30.731Z,5.68
2017-05-31T00:21:59.151Z,7.18
2017-05-31T00:24:27.453Z,6.86
2017-05-31T00:26:55.770Z,7.60
2017-05-31T00:29:24.076Z,6.38
2017-05-31T00:31:52.404Z,6.74
2017-05-31T00:34:20.707Z,6.78
2017-05-31T00:36:49.007Z,7.22
2017-05-31T00:39:17.322Z,5.98
2017-05-31T00:41:45.618Z,7.20
2017-05-31T00:44:13.962Z,6.93
2017-05-31T00:46:42.271Z,6.82
2017-05-31T00:49:10.574Z,9.63
2017-05-31T00:51:38.893Z,6.98
2017-05-31T00:54:07.190Z,7.38
2017-05-31T00:56:35.530Z,8.50
2017-05-31T00:59:03.827Z,8.16
2017-05-31T01:01:32.129Z,6.74
2017-05-31T01:04:00.451Z,6.95
2017-05-31T01:06:28.750Z,7.52
2017-05-31T01:08:57.074Z,7.34
2017-05-31T01:11:25.379Z,7.23
2017-05-31T01:13:53.701Z,7.53
2017-05-31T01:16:22.007Z,7.65
2017-05-31T01:18:50.318Z,7.35
2017-05-31T01:21:18.641Z,7.50
2017-05-31T01:23:46.946Z,8.70
2017-05-31T01:26:15.265Z,8.30
2017-05-31T01:28:43.580Z,7.78
2017-05-31T01:31:11.879Z,8.52
2017-05-31T01:33:40.190Z,7.33
2017-05-31T01:36:08.490Z,7.58
2017-05-31T01:38:36.826Z,7.87
2017-05-31T01:41:05.157Z,7.55
2017-05-31T01:43:33.458Z,7.03
2017-05-31T01:46:01.780Z,7.82
2017-05-31T01:48:30.087Z,7.60
2017-05-31T01:50:58.413Z,8.47
2017-05-31T01:53:26.715Z,8.10
2017-05-31T01:55:55.020Z,7.42
2017-05-31T01:58:23.346Z,8.03
2017-05-31T02:00:51.647Z,8.05
2017-05-31T02:03:19.974Z,7.98
2017-05-31T02:05:48.270Z,9.08
2017-05-31T02:08:16.577Z,8.85
2017-05-31T02:10:44.891Z,8.28
2017-05-31T02:13:13.194Z,7.97
2017-05-31T02:15:41.518Z,8.15
2017-05-31T02:18:09.818Z,8.80
2017-05-31T02:20:38.122Z,8.77
2017-05-31T02:23:06.452Z,9.85
2017-05-31T02:25:34.746Z,7.98
2017-05-31T02:28:03.072Z,8.35
2017-05-31T02:30:31.391Z,8.50
2017-05-31T02:32:59.687Z,8.30
2017-05-31T02:35:28.023Z,7.78
2017-05-31T02:37:56.324Z,8.72
2017-05-31T02:40:24.630Z,8.90
2017-05-31T02:42:52.950Z,9.40
2017-05-31T02:45:21.250Z,8.78
2017-05-31T02:47:49.553Z,8.62
2017-05-31T02:50:17.874Z,9.37
2017-05-31T02:52:46.170Z,8.78
2017-05-31T02:55:14.492Z,8.72
2017-05-31T02:57:42.809Z,7.98
2017-05-31T03:00:10.341Z,8.40
2017-05-31T03:02:38.678Z,9.00
2017-05-31T03:05:06.974Z,8.45
2017-05-31T03:07:35.277Z,9.33
2017-05-31T03:10:03.594Z,8.90
2017-05-31T03:12:31.898Z,9.25
2017-05-31T03:15:00.223Z,9.47
2017-05-31T03:17:28.533Z,9.77
2017-05-31T03:19:56.848Z,10.25
2017-05-31T03:22:25.170Z,10.07
2017-05-31T03:24:53.477Z,9.73
2017-05-31T03:27:21.063Z,9.42
2017-05-31T03:29:49.366Z,9.38
2017-05-31T03:32:17.666Z,10.97
2017-05-31T03:34:45.989Z,10.60
2017-05-31T03:37:14.289Z,11.68
2017-05-31T03:39:42.611Z,10.47
2017-05-31T03:42:10.920Z,10.78
2017-05-31T03:44:39.242Z,12.65
2017-05-31T03:47:07.541Z,10.00
2017-05-31T03:49:35.850Z,11.17
2017-05-31T03:52:04.179Z,12.35
2017-05-31T03:54:32.486Z,11.38
2017-05-31T03:57:00.819Z,10.88
2017-05-31T03:59:29.179Z,12.82
2017-05-31T04:01:57.476Z,11.92
2017-05-31T04:04:25.806Z,11.07
2017-05-31T04:06:54.118Z,11.58
2017-05-31T04:09:22.454Z,10.83
2017-05-31T04:11:50.766Z,11.22
2017-05-31T04:14:19.082Z,11.77
2017-05-31T04:16:47.402Z,12.10
2017-05-31T04:19:15.725Z,11.48
2017-05-31T04:21:44.061Z,12.53
2017-05-31T04:24:12.367Z,13.92
2017-05-31T04:26:40.693Z,12.10
2017-05-31T04:29:09.014Z,11.70
2017-05-31T04:31:37.322Z,13.36
2017-05-31T04:34:05.654Z,11.38
2017-05-31T04:36:33.957Z,12.26
2017-05-31T04:39:02.275Z,13.54
2017-05-31T04:41:30.609Z,12.86
2017-05-31T04:43:58.913Z,12.64
2017-05-31T04:46:27.254Z,12.36
2017-05-31T04:48:55.571Z,10.80
2017-05-31T04:51:23.869Z,10.54
2017-05-31T04:53:52.182Z,12.40
2017-05-31T04:56:20.483Z,12.86
2017-05-31T04:58:48.802Z,13.16
2017-05-31T05:01:17.102Z,11.46
2017-05-31T05:03:45.405Z,12.66
2017-05-31T05:06:13.739Z,12.42
2017-05-31T05:08:42.054Z,13.20
2017-05-31T05:11:10.377Z,11.88
2017-05-31T05:13:38.678Z,13.88
2017-05-31T05:16:06.995Z,12.20
2017-05-31T05:18:35.314Z,13.22
2017-05-31T05:21:03.623Z,13.04
2017-05-31T05:23:31.951Z,11.52
2017-05-31T05:26:00.262Z,13.74
2017-05-31T05:28:28.573Z,13.42
2017-05-31T05:30:56.904Z,11.46
2017-05-31T05:33:26.367Z,11.26
2017-05-31T05:35:54.703Z,12.08
2017-05-31T05:38:23.005Z,11.32
2017-05-31T05:40:51.306Z,10.90
2017-05-31T05:43:19.628Z,11.62
2017-05-31T05:45:47.930Z,12.76
2017-05-31T05:48:16.286Z,12.22
2017-05-31T05:50:44.590Z,12.48
2017-05-31T05:53:12.895Z,12.72
2017-05-31T05:55:41.215Z,11.02
2017-05-31T05:58:09.604Z,11.82
2017-05-31T06:00:37.935Z,11.80
2017-05-31T06:03:06.226Z,10.84
2017-05-31T06:05:34.522Z,11.20
2017-05-31T06:08:02.838Z,10.98
2017-05-31T06:10:31.182Z,10.64
2017-05-31T06:12:59.505Z,11.56
2017-05-31T06:15:27.816Z,11.12
2017-05-31T06:17:56.118Z,10.20
2017-05-31T06:20:24.432Z,9.92
2017-05-31T06:22:52.727Z,11.46
2017-05-31T06:25:21.081Z,11.24
2017-05-31T06:27:49.374Z,11.42
2017-05-31T06:30:17.683Z,11.36
2017-05-31T06:32:46.010Z,10.68
2017-05-31T06:35:14.314Z,10.46
2017-05-31T06:37:42.634Z,10.72
2017-05-31T06:40:10.938Z,11.88
2017-05-31T06:42:39.253Z,10.62
2017-05-31T06:45:07.545Z,9.72
2017-05-31T06:47:35.839Z,11.36
2017-05-31T06:50:04.161Z,10.34
2017-05-31T06:52:32.503Z,11.08
2017-05-31T06:55:00.816Z,11.38
2017-05-31T06:57:29.111Z,10.48
2017-05-31T06:59:57.406Z,10.84
2017-05-31T07:05:04.810Z,11.74
2017-05-31T07:07:33.105Z,12.84
2017-05-31T07:10:01.419Z,12.62
2017-05-31T07:12:29.739Z,11.06
2017-05-31T07:20:13.700Z,10.18
2017-05-31T07:25:20.012Z,10.38
2017-05-31T07:27:48.343Z,10.90
2017-05-31T07:30:18.862Z,10.22
2017-05-31T07:32:47.169Z,9.00
2017-05-31T07:35:15.481Z,9.52
2017-05-31T07:37:43.831Z,10.48
2017-05-31T07:40:12.148Z,9.42
2017-05-31T07:42:40.443Z,9.38
2017-05-31T07:45:08.743Z,9.52
2017-05-31T07:47:37.069Z,10.70
2017-05-31T07:50:05.382Z,9.00
2017-05-31T07:52:33.679Z,9.34
2017-05-31T07:55:01.987Z,9.62
2017-05-31T07:57:30.363Z,9.16
2017-05-31T07:59:58.670Z,8.06
2017-05-31T08:02:26.971Z,8.92
2017-05-31T08:04:55.295Z,9.32
2017-05-31T08:07:25.050Z,8.78
2017-05-31T08:09:53.374Z,9.12
2017-05-31T08:12:21.717Z,9.00
2017-05-31T08:14:50.017Z,8.06
2017-05-31T08:17:18.302Z,8.10
2017-05-31T08:19:46.617Z,8.28
2017-05-31T08:22:14.919Z,10.24
2017-05-31T08:24:43.258Z,7.86
2017-05-31T08:27:11.550Z,7.12
2017-05-31T08:29:39.842Z,7.44
2017-05-31T08:32:08.158Z,7.48
2017-05-31T08:34:36.443Z,6.72
2017-05-31T08:37:04.770Z,7.34
2017-05-31T08:39:33.071Z,7.20
2017-05-31T08:42:01.366Z,9.14
2017-05-31T08:44:29.679Z,8.36
2017-05-31T08:46:57.973Z,6.96
2017-05-31T08:49:25.936Z,5.78
2017-05-31T08:51:54.250Z,6.40
2017-05-31T08:54:22.538Z,6.72
2017-05-31T08:56:50.851Z,6.50
2017-05-31T08:59:19.151Z,7.00
2017-05-31T09:01:47.482Z,7.10
2017-05-31T09:04:15.781Z,5.98
2017-05-31T09:06:44.078Z,6.18
2017-05-31T09:09:12.397Z,7.54
2017-05-31T09:11:40.698Z,7.28
2017-05-31T09:14:09.020Z,6.96
2017-05-31T09:16:37.314Z,7.84
2017-05-31T09:19:05.610Z,6.30
2017-05-31T09:21:33.928Z,6.48
2017-05-31T09:24:02.228Z,6.84
2017-05-31T09:26:30.536Z,6.80
2017-05-31T09:28:59.119Z,6.72
2017-05-31T09:31:27.416Z,6.74
2017-05-31T09:33:55.726Z,5.92
2017-05-31T09:36:24.023Z,6.94
2017-05-31T09:38:52.353Z,6.78
2017-05-31T09:41:20.667Z,6.94
2017-05-31T09:43:48.958Z,6.94
2017-05-31T09:46:17.285Z,6.54
2017-05-31T09:48:45.589Z,6.06
2017-05-31T09:51:13.903Z,6.86
2017-05-31T09:53:42.198Z,6.32
2017-05-31T09:56:10.947Z,6.48
2017-05-31T09:58:39.278Z,6.24
2017-05-31T10:01:07.586Z,6.82
2017-05-31T10:03:35.916Z,6.04
2017-05-31T10:06:04.230Z,7.30
2017-05-31T10:08:32.532Z,8.58
2017-05-31T10:11:00.853Z,6.00
2017-05-31T10:13:29.146Z,6.94
2017-05-31T10:15:57.462Z,6.20
2017-05-31T10:18:25.751Z,6.48
2017-05-31T10:20:53.281Z,6.58
2017-05-31T10:23:21.585Z,6.86
2017-05-31T10:28:27.826Z,4.96
2017-05-31T10:30:56.130Z,6.28
2017-05-31T10:33:24.427Z,4.70
2017-05-31T10:35:52.752Z,4.30
2017-05-31T10:38:21.074Z,4.26
2017-05-31T10:40:49.377Z,4.50
2017-05-31T10:43:17.667Z,5.00
2017-05-31T10:45:45.975Z,4.62
2017-05-31T10:48:17.482Z,6.68
2017-05-31T10:50:45.795Z,4.56
2017-05-31T10:53:14.110Z,4.44
2017-05-31T10:55:42.448Z,4.66
2017-05-31T10:58:10.770Z,4.44
2017-05-31T11:00:39.064Z,4.86
2017-05-31T11:03:07.357Z,5.32
2017-05-31T11:05:35.671Z,4.18
2017-05-31T11:08:03.969Z,7.00
2017-05-31T11:10:32.283Z,6.40
2017-05-31T11:13:00.578Z,4.08
2017-05-31T11:15:28.874Z,4.56
2017-05-31T11:17:57.182Z,5.14
2017-05-31T11:20:25.474Z,6.56
2017-05-31T11:22:53.812Z,4.68
2017-05-31T11:25:22.151Z,4.94
2017-05-31T11:27:50.470Z,5.48
2017-05-31T11:30:18.792Z,5.24
2017-05-31T11:32:47.098Z,4.82
2017-05-31T11:35:15.423Z,5.46
2017-05-31T11:37:43.748Z,4.46
2017-05-31T11:40:12.042Z,5.36
2017-05-31T11:42:40.378Z,4.60
2017-05-31T11:45:08.676Z,5.26
2017-05-31T11:47:36.998Z,5.44
2017-05-31T11:50:05.302Z,5.36
2017-05-31T11:55:08.329Z,6.16
2017-05-31T11:57:36.630Z,8.14
2017-05-31T12:00:04.946Z,5.56
2017-05-31T12:02:33.251Z,7.10
2017-05-31T12:05:01.590Z,6.74
2017-05-31T12:07:29.984Z,4.32
2017-05-31T12:09:58.281Z,4.86
2017-05-31T12:12:26.593Z,8.80
2017-05-31T12:14:54.886Z,5.30
2017-05-31T12:17:23.183Z,4.62
2017-05-31T12:19:51.515Z,6.40
2017-05-31T12:22:19.874Z,4.86
2017-05-31T12:24:48.187Z,5.24
2017-05-31T12:27:16.487Z,4.62
2017-05-31T12:29:44.792Z,5.92
2017-05-31T12:32:13.106Z,6.28
2017-05-31T12:34:41.396Z,5.00
2017-05-31T12:37:09.714Z,4.80
2017-05-31T12:39:38.006Z,4.74
2017-05-31T12:42:06.298Z,4.40
2017-05-31T12:44:34.617Z,4.92
2017-05-31T12:47:02.930Z,4.32
2017-05-31T12:49:31.252Z,4.28
2017-05-31T12:51:59.566Z,4.50
2017-05-31T12:54:27.866Z,4.62
2017-05-31T12:56:56.179Z,6.36
2017-05-31T12:59:24.465Z,4.28
2017-05-31T13:01:52.813Z,4.12
2017-05-31T13:04:21.099Z,4.12
2017-05-31T13:06:49.394Z,3.78
2017-05-31T13:09:17.710Z,4.44
2017-05-31T13:11:46.006Z,4.60
2017-05-31T13:14:14.683Z,4.44
2017-05-31T13:16:42.978Z,4.42
2017-05-31T13:19:11.263Z,4.12
2017-05-31T13:21:39.583Z,4.96
2017-05-31T13:24:07.911Z,4.06
2017-05-31T13:26:36.260Z,5.02
2017-05-31T13:29:04.555Z,4.12
2017-05-31T13:31:32.846Z,5.08
2017-05-31T13:34:01.162Z,4.68
2017-05-31T13:36:29.471Z,4.84
2017-05-31T13:38:57.793Z,5.02
2017-05-31T13:41:26.098Z,4.78
2017-05-31T13:43:54.394Z,4.88
2017-05-31T13:46:22.703Z,4.60
2017-05-31T13:48:50.989Z,5.02
2017-05-31T13:51:19.310Z,4.84
2017-05-31T13:53:47.609Z,5.54
2017-05-31T13:56:15.917Z,4.48
2017-05-31T13:58:44.230Z,4.64
2017-05-31T14:01:12.522Z,4.26
2017-05-31T14:03:40.838Z,4.80
2017-05-31T14:06:09.142Z,4.64
2017-05-31T14:08:37.430Z,4.80
2017-05-31T14:11:05.751Z,4.74
2017-05-31T14:13:34.045Z,6.12
2017-05-31T14:16:02.336Z,4.98
2017-05-31T14:18:30.653Z,4.70
2017-05-31T14:20:58.951Z,4.40
2017-05-31T14:23:27.280Z,4.22
2017-05-31T14:25:55.574Z,4.40
2017-05-31T14:28:23.859Z,5.92
2017-05-31T14:30:52.162Z,4.42
2017-05-31T14:33:20.449Z,6.40
2017-05-31T14:35:48.761Z,4.68
2017-05-31T14:38:17.062Z,6.04
2017-05-31T14:40:45.350Z,4.10
2017-05-31T14:43:13.666Z,3.92
2017-05-31T14:45:41.963Z,3.72
2017-05-31T14:48:10.299Z,3.84
2017-05-31T14:50:38.593Z,4.32
2017-05-31T14:53:06.892Z,5.00
2017-05-31T14:55:35.193Z,4.14
2017-05-31T14:58:03.482Z,4.40
2017-05-31T15:00:31.806Z,4.10
2017-05-31T15:03:00.102Z,5.90
2017-05-31T15:05:28.399Z,4.54
2017-05-31T15:07:56.709Z,4.10
2017-05-31T15:10:25.000Z,4.08
2017-05-31T15:12:53.314Z,4.12
2017-05-31T15:15:21.608Z,4.14
2017-05-31T15:17:49.905Z,3.68
2017-05-31T15:20:18.217Z,4.32
2017-05-31T15:22:46.510Z,4.16
2017-05-31T15:25:14.817Z,4.92
2017-05-31T15:27:43.101Z,4.52
2017-05-31T15:30:11.391Z,4.04
2017-05-31T15:32:39.703Z,4.44
2017-05-31T15:35:07.989Z,4.42
2017-05-31T15:37:36.315Z,3.72
2017-05-31T15:40:04.607Z,4.76
2017-05-31T15:42:32.902Z,4.22
2017-05-31T15:45:01.212Z,4.44
2017-05-31T15:47:29.609Z,3.70
2017-05-31T15:49:57.946Z,4.98
2017-05-31T15:52:26.243Z,4.52
2017-05-31T15:54:54.540Z,3.66
2017-05-31T15:57:22.098Z,8.26
2017-05-31T15:59:50.386Z,3.82
2017-05-31T16:02:18.736Z,4.22
2017-05-31T16:04:47.035Z,4.74
2017-05-31T16:07:15.330Z,5.16
2017-05-31T16:09:43.638Z,3.68
2017-05-31T16:12:11.929Z,3.06
2017-05-31T16:14:40.246Z,7.26
2017-05-31T16:17:08.540Z,4.12
2017-05-31T16:19:36.834Z,3.64
2017-05-31T16:22:05.143Z,5.22
2017-05-31T16:24:33.441Z,4.42
2017-05-31T16:27:01.796Z,4.78
2017-05-31T16:29:30.086Z,3.86
2017-05-31T16:31:58.382Z,4.22
2017-05-31T16:34:26.702Z,4.06
2017-05-31T16:36:55.002Z,3.78
2017-05-31T16:39:23.317Z,4.74
2017-05-31T16:41:51.610Z,4.70
2017-05-31T16:44:19.914Z,5.82
2017-05-31T16:46:48.234Z,6.64
2017-05-31T16:49:16.523Z,3.62
2017-05-31T16:51:44.831Z,3.44
2017-05-31T16:54:13.129Z,3.70
2017-05-31T16:56:41.851Z,3.74
2017-05-31T16:59:10.187Z,4.30
2017-05-31T17:01:38.477Z,5.08
2017-05-31T17:04:06.789Z,5.44
2017-05-31T17:06:35.086Z,3.92
2017-05-31T17:09:03.382Z,6.14
2017-05-31T17:11:31.694Z,3.54
2017-05-31T17:13:59.988Z,3.80
2017-05-31T17:16:28.315Z,4.72
2017-05-31T17:18:56.610Z,3.66
2017-05-31T17:21:24.911Z,7.70
2017-05-31T17:23:53.226Z,3.86
2017-05-31T17:26:21.546Z,3.54
2017-05-31T17:28:49.872Z,3.72
2017-05-31T17:31:18.174Z,3.96
2017-05-31T17:33:46.480Z,3.78
2017-05-31T17:36:14.831Z,3.74
2017-05-31T17:38:43.164Z,3.84
2017-05-31T17:41:11.478Z,3.48
2017-05-31T17:43:39.770Z,3.80
2017-05-31T17:46:08.090Z,3.52
2017-05-31T17:48:36.387Z,3.56
2017-05-31T17:51:04.688Z,3.70
2017-05-31T17:53:33.020Z,3.60
2017-05-31T17:56:01.315Z,4.42
2017-05-31T17:58:29.656Z,5.54
2017-05-31T18:00:58.005Z,3.86
2017-05-31T18:03:26.306Z,3.64
2017-05-31T18:05:54.621Z,3.88
2017-05-31T18:08:22.922Z,3.42
2017-05-31T18:10:51.242Z,3.74
2017-05-31T18:13:19.542Z,7.94
2017-05-31T18:15:47.839Z,4.26
2017-05-31T18:18:16.146Z,4.12
2017-05-31T18:20:44.441Z,3.16
2017-05-31T18:23:12.763Z,3.20
2017-05-31T18:25:41.073Z,3.58
2017-05-31T18:30:47.235Z,4.06
2017-05-31T18:33:15.541Z,3.78
2017-05-31T18:35:43.853Z,7.64
2017-05-31T18:38:12.154Z,3.74
2017-05-31T18:40:40.454Z,3.32
2017-05-31T18:43:08.766Z,3.40
2017-05-31T18:45:37.064Z,5.18
2017-05-31T18:48:05.386Z,4.92
2017-05-31T18:50:33.686Z,5.38
2017-05-31T18:53:02.021Z,4.72
2017-05-31T18:55:30.334Z,6.42
2017-05-31T18:57:58.634Z,3.72
2017-05-31T19:00:26.954Z,3.28
2017-05-31T19:02:55.250Z,3.50
2017-05-31T19:05:23.542Z,4.32
2017-05-31T19:07:51.853Z,4.08
2017-05-31T19:10:20.146Z,3.96
2017-05-31T19:12:48.470Z,4.46
2017-05-31T19:15:16.758Z,3.88
2017-05-31T19:17:45.057Z,3.54
2017-05-31T19:20:13.371Z,4.32
2017-05-31T19:22:41.661Z,3.48
2017-05-31T19:25:09.978Z,5.10
2017-05-31T19:27:38.282Z,3.64
2017-05-31T19:30:06.581Z,3.56
2017-05-31T19:32:34.894Z,3.64
2017-05-31T19:35:03.191Z,4.18
2017-05-31T19:37:31.517Z,3.78
2017-05-31T19:39:59.814Z,5.34
2017-05-31T19:42:28.107Z,6.26
2017-05-31T19:44:56.417Z,3.44
2017-05-31T19:47:24.710Z,4.24
2017-05-31T19:49:53.018Z,3.76
2017-05-31T19:52:20.546Z,3.88
2017-05-31T19:54:48.861Z,3.50
2017-05-31T19:57:17.150Z,3.36
2017-05-31T19:59:45.454Z,3.50
2017-05-31T20:02:13.765Z,4.00
2017-05-31T20:04:42.062Z,6.46
2017-05-31T20:07:10.386Z,3.84
2017-05-31T20:09:38.690Z,4.14
2017-05-31T20:12:07.037Z,3.98
2017-05-31T20:14:35.346Z,4.30
2017-05-31T20:17:03.652Z,4.40
2017-05-31T20:19:31.978Z,4.06
2017-05-31T20:22:00.286Z,5.46
2017-05-31T20:24:28.585Z,6.86
2017-05-31T20:26:56.895Z,5.08
2017-05-31T20:29:25.202Z,4.12
2017-05-31T20:31:53.520Z,3.58
2017-05-31T20:34:21.821Z,4.66
2017-05-31T20:36:50.110Z,4.78
2017-05-31T20:39:18.439Z,4.24
2017-05-31T20:41:46.731Z,4.42
2017-05-31T20:44:15.062Z,4.38
2017-05-31T20:46:43.378Z,5.46
2017-05-31T20:49:11.678Z,4.70
2017-05-31T20:51:39.998Z,3.92
2017-05-31T20:54:08.316Z,5.18
2017-05-31T20:56:36.616Z,3.92
2017-05-31T20:59:04.939Z,4.96
2017-05-31T21:01:33.246Z,4.98
2017-05-31T21:04:01.559Z,7.40
2017-05-31T21:06:29.960Z,4.64
2017-05-31T21:08:58.270Z,7.27
2017-05-31T21:11:26.602Z,4.55
2017-05-31T21:13:54.915Z,4.20
2017-05-31T21:16:23.223Z,4.28
2017-05-31T21:18:51.532Z,3.98
2017-05-31T21:21:19.843Z,4.82
2017-05-31T21:23:48.174Z,5.48
2017-05-31T21:26:16.481Z,4.63
2017-05-31T21:28:44.794Z,5.12
2017-05-31T21:31:13.124Z,4.30
2017-05-31T21:33:41.427Z,4.62
2017-05-31T21:36:09.749Z,5.08
2017-05-31T21:38:38.046Z,4.85
2017-05-31T21:41:06.357Z,4.85
2017-05-31T21:43:34.694Z,4.63
2017-05-31T21:46:02.998Z,4.45
2017-05-31T21:48:31.323Z,5.20
2017-05-31T21:50:59.621Z,4.97
2017-05-31T21:53:27.921Z,5.27
2017-05-31T21:55:56.231Z,5.08
2017-05-31T21:58:24.546Z,6.37
2017-05-31T22:00:52.983Z,4.93
2017-05-31T22:03:21.295Z,6.57
2017-05-31T22:05:49.608Z,5.43
2017-05-31T22:08:17.941Z,5.35
2017-05-31T22:10:46.258Z,4.97
2017-05-31T22:13:14.578Z,4.75
2017-05-31T22:15:42.895Z,5.00
2017-05-31T22:18:11.225Z,5.12
2017-05-31T22:20:39.592Z,4.83
2017-05-31T22:23:07.941Z,5.95
2017-05-31T22:25:36.305Z,5.65
2017-05-31T22:28:04.619Z,5.55
2017-05-31T22:30:33.079Z,5.18
2017-05-31T22:33:01.432Z,5.05
2017-05-31T22:35:29.774Z,4.38
2017-05-31T22:37:58.122Z,7.25
2017-05-31T22:40:26.421Z,5.02
2017-05-31T22:42:54.722Z,7.00
2017-05-31T22:45:23.052Z,5.80
2017-05-31T22:47:51.373Z,7.92
2017-05-31T22:50:19.722Z,6.27
2017-05-31T22:52:48.030Z,6.20
2017-05-31T22:55:16.355Z,5.58
2017-05-31T22:57:44.680Z,5.02
2017-05-31T23:00:12.974Z,5.85
2017-05-31T23:02:41.351Z,5.83
2017-05-31T23:05:09.663Z,6.02
2017-05-31T23:07:38.018Z,5.20
2017-05-31T23:10:06.326Z,6.37
2017-05-31T23:12:34.624Z,6.15
2017-05-31T23:15:02.950Z,5.13
2017-05-31T23:17:31.245Z,5.88
2017-05-31T23:19:59.559Z,6.45
2017-05-31T23:22:27.872Z,5.08
2017-05-31T23:24:56.201Z,5.82
2017-05-31T23:27:24.519Z,5.88
2017-05-31T23:29:52.830Z,7.55
2017-05-31T23:32:21.117Z,6.52
2017-05-31T23:34:49.434Z,5.10
2017-05-31T23:37:17.735Z,6.20
2017-05-31T23:39:46.083Z,5.95
2017-05-31T23:42:14.392Z,6.18
2017-05-31T23:44:42.690Z,5.42
2017-05-31T23:47:10.997Z,5.77
2017-05-31T23:49:39.290Z,5.35
2017-05-31T23:52:07.607Z,5.33
2017-05-31T23:54:35.894Z,6.25
2017-05-31T23:57:04.185Z,5.62
2017-05-31T23:59:32.498Z,5.70
